sensor_id;sensor_type;location;lat;lon;timestamp;temperature;humidity
1786;DHT22;890;48.158;11.540;2023-05-29T00:02:14;17.10;53.80
1786;DHT22;890;48.158;11.540;2023-05-29T00:04:40;17.10;54.30
1786;DHT22;890;48.158;11.540;2023-05-29T00:07:05;17.00;54.50
1786;DHT22;890;48.158;11.540;2023-05-29T00:09:31;17.00;54.70
1786;DHT22;890;48.158;11.540;2023-05-29T00:11:57;17.00;54.90
1786;DHT22;890;48.158;11.540;2023-05-29T00:14:22;17.00;54.90
1786;DHT22;890;48.158;11.540;2023-05-29T00:16:49;17.00;55.00
1786;DHT22;890;48.158;11.540;2023-05-29T00:19:16;17.00;55.10
1786;DHT22;890;48.158;11.540;2023-05-29T00:21:45;17.00;55.20
1786;DHT22;890;48.158;11.540;2023-05-29T00:24:16;17.00;55.20
1786;DHT22;890;48.158;11.540;2023-05-29T00:26:42;16.90;55.20
1786;DHT22;890;48.158;11.540;2023-05-29T00:29:07;16.90;55.30
1786;DHT22;890;48.158;11.540;2023-05-29T00:31:33;16.90;55.40
1786;DHT22;890;48.158;11.540;2023-05-29T00:33:58;16.90;55.60
1786;DHT22;890;48.158;11.540;2023-05-29T00:36:26;16.90;55.70
1786;DHT22;890;48.158;11.540;2023-05-29T00:38:52;16.90;55.80
1786;DHT22;890;48.158;11.540;2023-05-29T00:41:17;16.90;55.80
1786;DHT22;890;48.158;11.540;2023-05-29T00:43:43;16.90;55.90
1786;DHT22;890;48.158;11.540;2023-05-29T00:46:13;16.80;56.10
1786;DHT22;890;48.158;11.540;2023-05-29T00:48:42;16.70;56.40
1786;DHT22;890;48.158;11.540;2023-05-29T00:51:10;16.70;56.40
1786;DHT22;890;48.158;11.540;2023-05-29T00:53:36;16.80;56.70
1786;DHT22;890;48.158;11.540;2023-05-29T00:56:03;16.70;56.80
1786;DHT22;890;48.158;11.540;2023-05-29T00:58:30;16.60;56.90
1786;DHT22;890;48.158;11.540;2023-05-29T01:00:55;16.60;56.90
1786;DHT22;890;48.158;11.540;2023-05-29T01:03:21;16.60;57.30
1786;DHT22;890;48.158;11.540;2023-05-29T01:05:48;16.40;57.30
1786;DHT22;890;48.158;11.540;2023-05-29T01:08:14;16.40;57.50
1786;DHT22;890;48.158;11.540;2023-05-29T01:10:40;16.30;57.60
1786;DHT22;890;48.158;11.540;2023-05-29T01:13:18;16.20;57.80
1786;DHT22;890;48.158;11.540;2023-05-29T01:16:08;16.10;58.30
1786;DHT22;890;48.158;11.540;2023-05-29T01:19:05;16.10;58.30
1786;DHT22;890;48.158;11.540;2023-05-29T01:27:12;15.90;59.30
1786;DHT22;890;48.158;11.540;2023-05-29T01:29:42;16.00;59.30
1786;DHT22;890;48.158;11.540;2023-05-29T01:32:09;16.00;59.60
1786;DHT22;890;48.158;11.540;2023-05-29T01:34:35;16.00;59.80
1786;DHT22;890;48.158;11.540;2023-05-29T01:37:01;16.00;59.80
1786;DHT22;890;48.158;11.540;2023-05-29T01:39:26;16.00;60.00
1786;DHT22;890;48.158;11.540;2023-05-29T01:41:53;15.90;60.20
1786;DHT22;890;48.158;11.540;2023-05-29T01:44:20;15.90;61.30
1786;DHT22;890;48.158;11.540;2023-05-29T01:46:46;15.80;61.00
1786;DHT22;890;48.158;11.540;2023-05-29T01:49:12;15.80;61.30
1786;DHT22;890;48.158;11.540;2023-05-29T01:51:40;15.70;61.40
1786;DHT22;890;48.158;11.540;2023-05-29T01:54:06;15.70;61.80
1786;DHT22;890;48.158;11.540;2023-05-29T01:56:32;15.70;61.80
1786;DHT22;890;48.158;11.540;2023-05-29T01:58:58;15.70;62.00
1786;DHT22;890;48.158;11.540;2023-05-29T02:01:26;15.60;62.10
1786;DHT22;890;48.158;11.540;2023-05-29T02:03:52;15.60;62.30
1786;DHT22;890;48.158;11.540;2023-05-29T02:06:18;15.60;62.40
1786;DHT22;890;48.158;11.540;2023-05-29T02:08:43;15.60;62.60
1786;DHT22;890;48.158;11.540;2023-05-29T02:11:09;15.60;62.50
1786;DHT22;890;48.158;11.540;2023-05-29T02:13:35;15.60;62.40
1786;DHT22;890;48.158;11.540;2023-05-29T02:16:00;15.70;62.70
1786;DHT22;890;48.158;11.540;2023-05-29T02:18:26;15.60;62.80
1786;DHT22;890;48.158;11.540;2023-05-29T02:20:52;15.60;63.10
1786;DHT22;890;48.158;11.540;2023-05-29T02:23:17;15.70;63.50
1786;DHT22;890;48.158;11.540;2023-05-29T02:25:45;15.50;63.60
1786;DHT22;890;48.158;11.540;2023-05-29T02:28:10;15.40;63.70
1786;DHT22;890;48.158;11.540;2023-05-29T02:30:36;15.50;63.30
1786;DHT22;890;48.158;11.540;2023-05-29T02:33:02;15.20;63.60
1786;DHT22;890;48.158;11.540;2023-05-29T02:35:28;15.10;64.00
1786;DHT22;890;48.158;11.540;2023-05-29T02:37:53;14.90;63.40
1786;DHT22;890;48.158;11.540;2023-05-29T02:40:19;15.00;64.10
1786;DHT22;890;48.158;11.540;2023-05-29T02:42:46;15.10;64.40
1786;DHT22;890;48.158;11.540;2023-05-29T02:45:12;14.90;64.40
1786;DHT22;890;48.158;11.540;2023-05-29T02:47:38;14.90;64.60
1786;DHT22;890;48.158;11.540;2023-05-29T02:50:04;14.80;64.80
1786;DHT22;890;48.158;11.540;2023-05-29T02:52:31;14.80;65.20
1786;DHT22;890;48.158;11.540;2023-05-29T02:54:57;14.80;65.40
1786;DHT22;890;48.158;11.540;2023-05-29T02:57:24;14.50;65.30
1786;DHT22;890;48.158;11.540;2023-05-29T02:59:50;14.80;65.90
1786;DHT22;890;48.158;11.540;2023-05-29T03:02:17;14.70;66.10
1786;DHT22;890;48.158;11.540;2023-05-29T03:04:42;14.70;66.30
1786;DHT22;890;48.158;11.540;2023-05-29T03:07:08;15.10;66.90
1786;DHT22;890;48.158;11.540;2023-05-29T03:09:35;14.60;66.40
1786;DHT22;890;48.158;11.540;2023-05-29T03:12:00;14.60;66.50
1786;DHT22;890;48.158;11.540;2023-05-29T03:14:27;14.60;66.50
1786;DHT22;890;48.158;11.540;2023-05-29T03:16:53;14.70;66.40
1786;DHT22;890;48.158;11.540;2023-05-29T03:19:19;14.80;66.30
1786;DHT22;890;48.158;11.540;2023-05-29T03:21:44;14.80;66.00
1786;DHT22;890;48.158;11.540;2023-05-29T03:24:10;14.80;65.80
1786;DHT22;890;48.158;11.540;2023-05-29T03:26:36;14.80;65.70
1786;DHT22;890;48.158;11.540;2023-05-29T03:29:02;14.80;65.60
1786;DHT22;890;48.158;11.540;2023-05-29T03:31:28;14.70;65.40
1786;DHT22;890;48.158;11.540;2023-05-29T03:33:53;14.80;65.50
1786;DHT22;890;48.158;11.540;2023-05-29T03:36:19;14.70;65.40
1786;DHT22;890;48.158;11.540;2023-05-29T03:38:44;14.70;65.40
1786;DHT22;890;48.158;11.540;2023-05-29T03:41:10;14.70;65.50
1786;DHT22;890;48.158;11.540;2023-05-29T03:43:36;14.70;65.60
1786;DHT22;890;48.158;11.540;2023-05-29T03:46:01;14.60;65.60
1786;DHT22;890;48.158;11.540;2023-05-29T03:48:27;14.60;65.30
1786;DHT22;890;48.158;11.540;2023-05-29T03:50:53;14.60;65.70
1786;DHT22;890;48.158;11.540;2023-05-29T03:53:18;14.70;65.90
1786;DHT22;890;48.158;11.540;2023-05-29T03:55:44;14.80;66.00
1786;DHT22;890;48.158;11.540;2023-05-29T03:58:09;15.20;66.50
1786;DHT22;890;48.158;11.540;2023-05-29T04:00:38;14.70;66.10
1786;DHT22;890;48.158;11.540;2023-05-29T04:03:03;14.70;66.10
1786;DHT22;890;48.158;11.540;2023-05-29T04:05:29;14.60;65.90
1786;DHT22;890;48.158;11.540;2023-05-29T04:07:55;14.70;66.10
1786;DHT22;890;48.158;11.540;2023-05-29T04:10:21;14.70;66.10
1786;DHT22;890;48.158;11.540;2023-05-29T04:12:47;14.60;65.80
1786;DHT22;890;48.158;11.540;2023-05-29T04:15:12;14.60;65.60
1786;DHT22;890;48.158;11.540;2023-05-29T04:17:38;14.60;65.40
1786;DHT22;890;48.158;11.540;2023-05-29T04:20:04;14.80;65.90
1786;DHT22;890;48.158;11.540;2023-05-29T04:22:35;14.80;65.90
1786;DHT22;890;48.158;11.540;2023-05-29T04:25:01;14.90;66.00
1786;DHT22;890;48.158;11.540;2023-05-29T04:27:29;14.90;65.80
1786;DHT22;890;48.158;11.540;2023-05-29T04:29:55;15.00;65.90
1786;DHT22;890;48.158;11.540;2023-05-29T04:32:21;15.00;65.80
1786;DHT22;890;48.158;11.540;2023-05-29T04:34:47;15.00;65.70
1786;DHT22;890;48.158;11.540;2023-05-29T04:37:13;15.00;65.60
1786;DHT22;890;48.158;11.540;2023-05-29T04:39:42;15.10;66.40
1786;DHT22;890;48.158;11.540;2023-05-29T04:42:08;15.10;65.60
1786;DHT22;890;48.158;11.540;2023-05-29T04:44:33;15.20;65.60
1786;DHT22;890;48.158;11.540;2023-05-29T04:46:59;15.30;65.50
1786;DHT22;890;48.158;11.540;2023-05-29T04:49:29;15.40;65.50
1786;DHT22;890;48.158;11.540;2023-05-29T04:51:54;15.40;65.30
1786;DHT22;890;48.158;11.540;2023-05-29T04:54:22;15.50;65.10
1786;DHT22;890;48.158;11.540;2023-05-29T04:56:48;15.60;64.90
1786;DHT22;890;48.158;11.540;2023-05-29T04:59:13;15.80;65.00
1786;DHT22;890;48.158;11.540;2023-05-29T05:01:39;15.90;64.70
1786;DHT22;890;48.158;11.540;2023-05-29T05:04:05;16.00;64.50
1786;DHT22;890;48.158;11.540;2023-05-29T05:06:30;16.10;64.60
1786;DHT22;890;48.158;11.540;2023-05-29T05:08:56;16.20;64.20
1786;DHT22;890;48.158;11.540;2023-05-29T05:11:23;16.10;63.70
1786;DHT22;890;48.158;11.540;2023-05-29T05:13:49;16.20;63.60
1786;DHT22;890;48.158;11.540;2023-05-29T05:16:15;16.20;63.30
1786;DHT22;890;48.158;11.540;2023-05-29T05:18:43;16.30;63.40
1786;DHT22;890;48.158;11.540;2023-05-29T05:21:08;16.40;63.50
1786;DHT22;890;48.158;11.540;2023-05-29T05:23:34;16.40;63.50
1786;DHT22;890;48.158;11.540;2023-05-29T05:26:00;16.50;62.90
1786;DHT22;890;48.158;11.540;2023-05-29T05:28:25;16.50;62.50
1786;DHT22;890;48.158;11.540;2023-05-29T05:30:51;16.50;62.50
1786;DHT22;890;48.158;11.540;2023-05-29T05:33:17;16.70;62.50
1786;DHT22;890;48.158;11.540;2023-05-29T05:35:42;16.90;62.40
1786;DHT22;890;48.158;11.540;2023-05-29T05:38:08;17.00;62.20
1786;DHT22;890;48.158;11.540;2023-05-29T05:40:34;17.10;62.00
1786;DHT22;890;48.158;11.540;2023-05-29T05:43:00;17.30;61.90
1786;DHT22;890;48.158;11.540;2023-05-29T05:45:25;17.40;61.80
1786;DHT22;890;48.158;11.540;2023-05-29T05:47:51;17.60;61.30
1786;DHT22;890;48.158;11.540;2023-05-29T05:50:17;17.50;61.00
1786;DHT22;890;48.158;11.540;2023-05-29T05:52:42;17.50;60.90
1786;DHT22;890;48.158;11.540;2023-05-29T05:55:08;17.50;60.50
1786;DHT22;890;48.158;11.540;2023-05-29T05:57:33;17.50;60.70
1786;DHT22;890;48.158;11.540;2023-05-29T06:00:01;17.60;60.90
1786;DHT22;890;48.158;11.540;2023-05-29T06:02:29;17.80;60.80
1786;DHT22;890;48.158;11.540;2023-05-29T06:04:55;17.90;60.50
1786;DHT22;890;48.158;11.540;2023-05-29T06:07:21;18.10;60.30
1786;DHT22;890;48.158;11.540;2023-05-29T06:09:46;18.30;60.20
1786;DHT22;890;48.158;11.540;2023-05-29T06:12:12;18.30;59.70
1786;DHT22;890;48.158;11.540;2023-05-29T06:14:38;18.50;59.80
1786;DHT22;890;48.158;11.540;2023-05-29T06:17:04;18.60;59.30
1786;DHT22;890;48.158;11.540;2023-05-29T06:19:29;18.60;59.00
1786;DHT22;890;48.158;11.540;2023-05-29T06:21:55;18.60;58.50
1786;DHT22;890;48.158;11.540;2023-05-29T06:24:20;18.60;58.40
1786;DHT22;890;48.158;11.540;2023-05-29T06:26:46;18.60;58.40
1786;DHT22;890;48.158;11.540;2023-05-29T06:29:12;18.70;57.90
1786;DHT22;890;48.158;11.540;2023-05-29T06:31:37;18.70;57.40
1786;DHT22;890;48.158;11.540;2023-05-29T06:34:03;18.80;57.60
1786;DHT22;890;48.158;11.540;2023-05-29T06:36:28;19.00;57.50
1786;DHT22;890;48.158;11.540;2023-05-29T06:38:54;19.00;57.50
1786;DHT22;890;48.158;11.540;2023-05-29T06:41:19;19.20;57.20
1786;DHT22;890;48.158;11.540;2023-05-29T06:43:46;19.30;56.70
1786;DHT22;890;48.158;11.540;2023-05-29T06:46:11;19.40;56.30
1786;DHT22;890;48.158;11.540;2023-05-29T06:48:37;19.40;56.70
1786;DHT22;890;48.158;11.540;2023-05-29T06:51:03;19.70;56.50
1786;DHT22;890;48.158;11.540;2023-05-29T06:53:40;19.70;56.10
1786;DHT22;890;48.158;11.540;2023-05-29T06:56:07;19.70;55.90
1786;DHT22;890;48.158;11.540;2023-05-29T06:58:33;19.90;56.20
1786;DHT22;890;48.158;11.540;2023-05-29T07:00:59;20.00;55.40
1786;DHT22;890;48.158;11.540;2023-05-29T07:03:26;20.10;55.80
1786;DHT22;890;48.158;11.540;2023-05-29T07:05:52;20.10;54.90
1786;DHT22;890;48.158;11.540;2023-05-29T07:08:18;20.30;54.90
1786;DHT22;890;48.158;11.540;2023-05-29T07:10:44;20.30;54.70
1786;DHT22;890;48.158;11.540;2023-05-29T07:13:10;20.40;54.70
1786;DHT22;890;48.158;11.540;2023-05-29T07:15:37;20.50;54.70
1786;DHT22;890;48.158;11.540;2023-05-29T07:18:02;20.50;54.30
1786;DHT22;890;48.158;11.540;2023-05-29T07:20:28;20.60;54.10
1786;DHT22;890;48.158;11.540;2023-05-29T07:22:54;20.60;54.30
1786;DHT22;890;48.158;11.540;2023-05-29T07:25:19;20.70;54.50
1786;DHT22;890;48.158;11.540;2023-05-29T07:27:45;20.70;54.20
1786;DHT22;890;48.158;11.540;2023-05-29T07:30:11;20.90;53.80
1786;DHT22;890;48.158;11.540;2023-05-29T07:32:36;20.80;53.60
1786;DHT22;890;48.158;11.540;2023-05-29T07:35:02;20.90;53.60
1786;DHT22;890;48.158;11.540;2023-05-29T07:37:28;20.90;53.70
1786;DHT22;890;48.158;11.540;2023-05-29T07:39:55;20.90;53.50
1786;DHT22;890;48.158;11.540;2023-05-29T07:42:21;20.90;53.70
1786;DHT22;890;48.158;11.540;2023-05-29T07:44:46;20.90;54.10
1786;DHT22;890;48.158;11.540;2023-05-29T07:47:13;21.10;54.10
1786;DHT22;890;48.158;11.540;2023-05-29T07:49:39;21.30;54.00
1786;DHT22;890;48.158;11.540;2023-05-29T07:52:04;21.50;54.10
1786;DHT22;890;48.158;11.540;2023-05-29T07:54:31;21.50;53.80
1786;DHT22;890;48.158;11.540;2023-05-29T07:57:01;21.60;53.40
1786;DHT22;890;48.158;11.540;2023-05-29T07:59:29;21.70;53.00
1786;DHT22;890;48.158;11.540;2023-05-29T08:01:55;21.70;53.00
1786;DHT22;890;48.158;11.540;2023-05-29T08:04:24;21.70;52.90
1786;DHT22;890;48.158;11.540;2023-05-29T08:06:50;21.80;52.70
1786;DHT22;890;48.158;11.540;2023-05-29T08:09:16;21.80;52.70
1786;DHT22;890;48.158;11.540;2023-05-29T08:11:43;21.90;52.60
1786;DHT22;890;48.158;11.540;2023-05-29T08:14:12;22.00;52.40
1786;DHT22;890;48.158;11.540;2023-05-29T08:16:37;22.10;52.10
1786;DHT22;890;48.158;11.540;2023-05-29T08:19:03;22.10;52.30
1786;DHT22;890;48.158;11.540;2023-05-29T08:21:30;22.20;52.20
1786;DHT22;890;48.158;11.540;2023-05-29T08:23:57;22.20;52.00
1786;DHT22;890;48.158;11.540;2023-05-29T08:26:23;22.30;52.10
1786;DHT22;890;48.158;11.540;2023-05-29T08:28:48;22.30;52.10
1786;DHT22;890;48.158;11.540;2023-05-29T08:31:14;22.30;52.10
1786;DHT22;890;48.158;11.540;2023-05-29T08:33:39;22.40;52.00
1786;DHT22;890;48.158;11.540;2023-05-29T08:36:05;22.40;51.80
1786;DHT22;890;48.158;11.540;2023-05-29T08:38:31;22.50;52.30
1786;DHT22;890;48.158;11.540;2023-05-29T08:40:57;22.50;51.90
1786;DHT22;890;48.158;11.540;2023-05-29T08:43:56;22.70;52.10
1786;DHT22;890;48.158;11.540;2023-05-29T08:46:25;22.60;51.20
1786;DHT22;890;48.158;11.540;2023-05-29T08:48:52;22.80;51.70
1786;DHT22;890;48.158;11.540;2023-05-29T08:51:20;22.70;51.60
1786;DHT22;890;48.158;11.540;2023-05-29T08:53:51;22.90;51.60
1786;DHT22;890;48.158;11.540;2023-05-29T08:56:17;23.00;51.20
1786;DHT22;890;48.158;11.540;2023-05-29T08:58:44;22.90;51.10
1786;DHT22;890;48.158;11.540;2023-05-29T09:01:10;22.80;51.20
1786;DHT22;890;48.158;11.540;2023-05-29T09:03:36;22.90;51.40
1786;DHT22;890;48.158;11.540;2023-05-29T09:06:04;23.00;50.90
1786;DHT22;890;48.158;11.540;2023-05-29T09:08:30;23.00;51.30
1786;DHT22;890;48.158;11.540;2023-05-29T09:10:55;23.20;50.90
1786;DHT22;890;48.158;11.540;2023-05-29T09:13:22;23.10;50.50
1786;DHT22;890;48.158;11.540;2023-05-29T09:15:48;23.10;51.00
1786;DHT22;890;48.158;11.540;2023-05-29T09:18:16;23.20;50.70
1786;DHT22;890;48.158;11.540;2023-05-29T09:20:43;23.10;50.40
1786;DHT22;890;48.158;11.540;2023-05-29T09:23:09;23.80;50.80
1786;DHT22;890;48.158;11.540;2023-05-29T09:25:44;23.40;50.30
1786;DHT22;890;48.158;11.540;2023-05-29T09:28:18;23.50;50.10
1786;DHT22;890;48.158;11.540;2023-05-29T09:30:44;23.60;50.20
1786;DHT22;890;48.158;11.540;2023-05-29T09:33:12;23.60;49.80
1786;DHT22;890;48.158;11.540;2023-05-29T09:35:48;23.60;49.30
1786;DHT22;890;48.158;11.540;2023-05-29T09:38:17;23.80;49.20
1786;DHT22;890;48.158;11.540;2023-05-29T09:40:43;23.90;48.90
1786;DHT22;890;48.158;11.540;2023-05-29T09:43:18;23.90;48.60
1786;DHT22;890;48.158;11.540;2023-05-29T09:45:47;24.00;48.00
1786;DHT22;890;48.158;11.540;2023-05-29T09:48:16;24.20;48.30
1786;DHT22;890;48.158;11.540;2023-05-29T09:50:46;24.30;47.80
1786;DHT22;890;48.158;11.540;2023-05-29T09:53:24;24.50;47.00
1786;DHT22;890;48.158;11.540;2023-05-29T09:55:55;24.60;45.90
1786;DHT22;890;48.158;11.540;2023-05-29T09:58:22;24.80;47.40
1786;DHT22;890;48.158;11.540;2023-05-29T10:00:49;25.60;49.00
1786;DHT22;890;48.158;11.540;2023-05-29T10:03:15;26.40;49.00
1786;DHT22;890;48.158;11.540;2023-05-29T10:05:42;27.30;48.50
1786;DHT22;890;48.158;11.540;2023-05-29T10:08:13;28.20;47.70
1786;DHT22;890;48.158;11.540;2023-05-29T10:10:43;28.60;45.20
1786;DHT22;890;48.158;11.540;2023-05-29T10:13:13;29.10;45.00
1786;DHT22;890;48.158;11.540;2023-05-29T10:15:44;29.50;44.60
1786;DHT22;890;48.158;11.540;2023-05-29T10:18:20;30.30;42.50
1786;DHT22;890;48.158;11.540;2023-05-29T10:20:50;30.80;41.30
1786;DHT22;890;48.158;11.540;2023-05-29T10:23:22;31.10;41.50
1786;DHT22;890;48.158;11.540;2023-05-29T10:25:52;31.30;40.40
1786;DHT22;890;48.158;11.540;2023-05-29T10:28:19;31.50;39.50
1786;DHT22;890;48.158;11.540;2023-05-29T10:30:55;31.50;38.70
1786;DHT22;890;48.158;11.540;2023-05-29T10:36:14;31.80;37.40
1786;DHT22;890;48.158;11.540;2023-05-29T10:38:44;31.90;37.00
1786;DHT22;890;48.158;11.540;2023-05-29T10:44:02;31.80;36.10
1786;DHT22;890;48.158;11.540;2023-05-29T10:49:19;31.80;36.50
1786;DHT22;890;48.158;11.540;2023-05-29T10:51:45;31.90;36.40
1786;DHT22;890;48.158;11.540;2023-05-29T10:54:13;32.00;35.90
1786;DHT22;890;48.158;11.540;2023-05-29T10:56:51;32.10;35.60
1786;DHT22;890;48.158;11.540;2023-05-29T10:59:18;32.10;35.40
1786;DHT22;890;48.158;11.540;2023-05-29T11:01:43;32.20;35.30
1786;DHT22;890;48.158;11.540;2023-05-29T11:06:48;32.50;35.10
1786;DHT22;890;48.158;11.540;2023-05-29T11:09:30;32.90;35.00
1786;DHT22;890;48.158;11.540;2023-05-29T11:12:25;32.70;34.10
1786;DHT22;890;48.158;11.540;2023-05-29T11:15:05;33.00;34.60
1786;DHT22;890;48.158;11.540;2023-05-29T11:20:01;32.70;33.80
1786;DHT22;890;48.158;11.540;2023-05-29T11:25:22;32.60;33.00
1786;DHT22;890;48.158;11.540;2023-05-29T11:27:49;32.50;33.30
1786;DHT22;890;48.158;11.540;2023-05-29T11:30:15;32.60;33.30
1786;DHT22;890;48.158;11.540;2023-05-29T11:32:41;32.80;33.20
1786;DHT22;890;48.158;11.540;2023-05-29T11:35:10;33.00;33.20
1786;DHT22;890;48.158;11.540;2023-05-29T11:37:38;33.30;32.10
1786;DHT22;890;48.158;11.540;2023-05-29T11:40:08;33.30;31.70
1786;DHT22;890;48.158;11.540;2023-05-29T11:42:47;33.10;31.10
1786;DHT22;890;48.158;11.540;2023-05-29T11:45:17;33.10;31.10
1786;DHT22;890;48.158;11.540;2023-05-29T11:50:25;33.20;30.70
1786;DHT22;890;48.158;11.540;2023-05-29T11:52:51;33.10;30.60
1786;DHT22;890;48.158;11.540;2023-05-29T11:55:20;33.00;31.00
1786;DHT22;890;48.158;11.540;2023-05-29T11:57:51;33.20;30.80
1786;DHT22;890;48.158;11.540;2023-05-29T12:00:20;33.40;30.10
1786;DHT22;890;48.158;11.540;2023-05-29T12:02:48;33.50;29.80
1786;DHT22;890;48.158;11.540;2023-05-29T12:05:16;33.40;29.60
1786;DHT22;890;48.158;11.540;2023-05-29T12:07:50;33.40;29.60
1786;DHT22;890;48.158;11.540;2023-05-29T12:10:17;33.60;29.50
1786;DHT22;890;48.158;11.540;2023-05-29T12:12:55;33.80;29.10
1786;DHT22;890;48.158;11.540;2023-05-29T12:15:21;33.90;28.90
1786;DHT22;890;48.158;11.540;2023-05-29T12:17:49;33.90;29.20
1786;DHT22;890;48.158;11.540;2023-05-29T12:20:16;34.00;29.20
1786;DHT22;890;48.158;11.540;2023-05-29T12:22:43;33.90;28.90
1786;DHT22;890;48.158;11.540;2023-05-29T12:25:14;33.90;28.60
1786;DHT22;890;48.158;11.540;2023-05-29T12:27:41;33.90;27.80
1786;DHT22;890;48.158;11.540;2023-05-29T12:30:12;33.90;27.80
1786;DHT22;890;48.158;11.540;2023-05-29T12:32:42;33.90;27.90
1786;DHT22;890;48.158;11.540;2023-05-29T12:35:15;33.70;27.00
1786;DHT22;890;48.158;11.540;2023-05-29T12:37:49;33.30;26.90
1786;DHT22;890;48.158;11.540;2023-05-29T12:40:22;32.90;27.10
1786;DHT22;890;48.158;11.540;2023-05-29T12:42:49;32.80;27.00
1786;DHT22;890;48.158;11.540;2023-05-29T12:45:18;32.60;27.90
1786;DHT22;890;48.158;11.540;2023-05-29T12:47:53;32.20;28.30
1786;DHT22;890;48.158;11.540;2023-05-29T12:50:26;31.30;28.70
1786;DHT22;890;48.158;11.540;2023-05-29T12:53:16;30.60;29.40
1786;DHT22;890;48.158;11.540;2023-05-29T12:55:42;30.20;30.20
1786;DHT22;890;48.158;11.540;2023-05-29T12:58:12;29.50;31.00
1786;DHT22;890;48.158;11.540;2023-05-29T13:00:40;29.00;30.70
1786;DHT22;890;48.158;11.540;2023-05-29T13:03:06;28.60;30.60
1786;DHT22;890;48.158;11.540;2023-05-29T13:05:32;28.40;30.50
1786;DHT22;890;48.158;11.540;2023-05-29T13:07:58;28.00;30.80
1786;DHT22;890;48.158;11.540;2023-05-29T13:10:28;27.80;31.50
1786;DHT22;890;48.158;11.540;2023-05-29T13:12:54;27.60;32.20
1786;DHT22;890;48.158;11.540;2023-05-29T13:15:23;27.40;32.70
1786;DHT22;890;48.158;11.540;2023-05-29T13:17:49;27.30;33.00
1786;DHT22;890;48.158;11.540;2023-05-29T13:20:16;27.20;33.10
1786;DHT22;890;48.158;11.540;2023-05-29T13:22:43;27.10;33.80
1786;DHT22;890;48.158;11.540;2023-05-29T13:25:11;26.70;33.80
1786;DHT22;890;48.158;11.540;2023-05-29T13:27:39;26.70;34.20
1786;DHT22;890;48.158;11.540;2023-05-29T13:30:06;26.50;34.00
1786;DHT22;890;48.158;11.540;2023-05-29T13:32:32;26.40;33.80
1786;DHT22;890;48.158;11.540;2023-05-29T13:34:57;26.20;34.00
1786;DHT22;890;48.158;11.540;2023-05-29T13:37:23;26.20;34.40
1786;DHT22;890;48.158;11.540;2023-05-29T13:39:49;26.10;34.30
1786;DHT22;890;48.158;11.540;2023-05-29T13:42:15;26.10;34.60
1786;DHT22;890;48.158;11.540;2023-05-29T13:44:40;26.10;35.10
1786;DHT22;890;48.158;11.540;2023-05-29T13:47:06;26.10;35.00
1786;DHT22;890;48.158;11.540;2023-05-29T13:49:34;26.00;34.90
1786;DHT22;890;48.158;11.540;2023-05-29T13:52:01;25.90;34.80
1786;DHT22;890;48.158;11.540;2023-05-29T13:54:27;25.80;34.80
1786;DHT22;890;48.158;11.540;2023-05-29T13:56:55;25.70;35.40
1786;DHT22;890;48.158;11.540;2023-05-29T13:59:22;25.60;35.80
1786;DHT22;890;48.158;11.540;2023-05-29T14:01:47;25.60;36.20
1786;DHT22;890;48.158;11.540;2023-05-29T14:04:13;25.60;36.40
1786;DHT22;890;48.158;11.540;2023-05-29T14:06:38;25.50;36.70
1786;DHT22;890;48.158;11.540;2023-05-29T14:09:04;25.50;36.80
1786;DHT22;890;48.158;11.540;2023-05-29T14:11:30;25.60;36.70
1786;DHT22;890;48.158;11.540;2023-05-29T14:13:55;25.60;36.50
1786;DHT22;890;48.158;11.540;2023-05-29T14:16:21;25.50;36.50
1786;DHT22;890;48.158;11.540;2023-05-29T14:18:47;25.50;36.50
1786;DHT22;890;48.158;11.540;2023-05-29T14:21:14;25.40;36.50
1786;DHT22;890;48.158;11.540;2023-05-29T14:23:39;25.30;36.60
1786;DHT22;890;48.158;11.540;2023-05-29T14:26:08;25.40;36.90
1786;DHT22;890;48.158;11.540;2023-05-29T14:28:33;25.40;37.00
1786;DHT22;890;48.158;11.540;2023-05-29T14:30:59;25.40;36.90
1786;DHT22;890;48.158;11.540;2023-05-29T14:33:25;25.40;36.80
1786;DHT22;890;48.158;11.540;2023-05-29T14:35:50;25.40;36.70
1786;DHT22;890;48.158;11.540;2023-05-29T14:38:16;25.30;36.70
1786;DHT22;890;48.158;11.540;2023-05-29T14:40:42;25.30;36.50
1786;DHT22;890;48.158;11.540;2023-05-29T14:43:07;25.30;36.70
1786;DHT22;890;48.158;11.540;2023-05-29T14:45:33;25.20;37.00
1786;DHT22;890;48.158;11.540;2023-05-29T14:47:58;25.20;37.60
1786;DHT22;890;48.158;11.540;2023-05-29T14:50:24;25.20;37.50
1786;DHT22;890;48.158;11.540;2023-05-29T14:52:50;25.20;37.60
1786;DHT22;890;48.158;11.540;2023-05-29T14:55:16;25.30;38.00
1786;DHT22;890;48.158;11.540;2023-05-29T14:57:41;25.30;38.30
1786;DHT22;890;48.158;11.540;2023-05-29T15:00:07;25.50;38.50
1786;DHT22;890;48.158;11.540;2023-05-29T15:02:34;25.50;38.30
1786;DHT22;890;48.158;11.540;2023-05-29T15:04:59;25.40;38.20
1786;DHT22;890;48.158;11.540;2023-05-29T15:07:25;25.40;38.30
1786;DHT22;890;48.158;11.540;2023-05-29T15:09:51;25.20;38.30
1786;DHT22;890;48.158;11.540;2023-05-29T15:12:17;25.20;38.30
1786;DHT22;890;48.158;11.540;2023-05-29T15:14:43;25.00;38.30
1786;DHT22;890;48.158;11.540;2023-05-29T15:17:08;25.00;38.40
1786;DHT22;890;48.158;11.540;2023-05-29T15:19:34;24.90;38.40
1786;DHT22;890;48.158;11.540;2023-05-29T15:21:59;24.90;38.50
1786;DHT22;890;48.158;11.540;2023-05-29T15:24:25;24.90;38.70
1786;DHT22;890;48.158;11.540;2023-05-29T15:26:51;24.90;38.70
1786;DHT22;890;48.158;11.540;2023-05-29T15:29:16;24.90;38.70
1786;DHT22;890;48.158;11.540;2023-05-29T15:31:42;24.90;38.80
1786;DHT22;890;48.158;11.540;2023-05-29T15:34:08;24.90;38.80
1786;DHT22;890;48.158;11.540;2023-05-29T15:36:34;24.90;38.90
1786;DHT22;890;48.158;11.540;2023-05-29T15:39:02;24.90;39.10
1786;DHT22;890;48.158;11.540;2023-05-29T15:41:28;24.90;39.10
1786;DHT22;890;48.158;11.540;2023-05-29T15:43:57;24.90;39.00
1786;DHT22;890;48.158;11.540;2023-05-29T15:46:29;24.80;38.70
1786;DHT22;890;48.158;11.540;2023-05-29T15:48:55;24.70;38.70
1786;DHT22;890;48.158;11.540;2023-05-29T15:51:21;24.60;38.70
1786;DHT22;890;48.158;11.540;2023-05-29T15:53:46;24.60;38.70
1786;DHT22;890;48.158;11.540;2023-05-29T15:56:12;24.70;38.70
1786;DHT22;890;48.158;11.540;2023-05-29T15:58:37;24.70;38.80
1786;DHT22;890;48.158;11.540;2023-05-29T16:01:03;24.70;38.70
1786;DHT22;890;48.158;11.540;2023-05-29T16:03:29;24.70;38.80
1786;DHT22;890;48.158;11.540;2023-05-29T16:05:55;24.80;39.00
1786;DHT22;890;48.158;11.540;2023-05-29T16:08:20;24.90;38.70
1786;DHT22;890;48.158;11.540;2023-05-29T16:10:46;24.90;38.60
1786;DHT22;890;48.158;11.540;2023-05-29T16:13:12;24.90;38.60
1786;DHT22;890;48.158;11.540;2023-05-29T16:15:38;24.90;38.40
1786;DHT22;890;48.158;11.540;2023-05-29T16:18:04;25.00;38.30
1786;DHT22;890;48.158;11.540;2023-05-29T16:20:30;25.10;38.00
1786;DHT22;890;48.158;11.540;2023-05-29T16:22:56;25.30;38.10
1786;DHT22;890;48.158;11.540;2023-05-29T16:25:22;25.40;37.60
1786;DHT22;890;48.158;11.540;2023-05-29T16:27:48;25.40;37.00